createdAt,value
2018-02-14T00:01:48.784Z,11.30
2018-02-14T00:04:16.270Z,12.67
2018-02-14T00:06:43.754Z,14.30
2018-02-14T00:09:11.253Z,12.00
2018-02-14T00:11:39.613Z,13.17
2018-02-14T00:14:07.125Z,11.23
2018-02-14T00:16:34.738Z,12.17
2018-02-14T00:19:02.261Z,15.00
2018-02-14T00:21:29.757Z,12.60
2018-02-14T00:23:57.277Z,11.60
2018-02-14T00:26:24.792Z,15.73
2018-02-14T00:28:52.293Z,15.60
2018-02-14T00:31:19.806Z,11.33
2018-02-14T00:33:47.282Z,15.80
2018-02-14T00:36:14.775Z,10.73
2018-02-14T00:38:42.265Z,21.50
2018-02-14T00:41:09.757Z,17.80
2018-02-14T00:43:37.248Z,17.63
2018-02-14T00:46:04.720Z,11.73
2018-02-14T00:48:32.228Z,13.17
2018-02-14T00:50:59.698Z,14.03
2018-02-14T00:53:27.194Z,13.73
2018-02-14T00:55:54.682Z,13.57
2018-02-14T00:58:22.157Z,9.97
2018-02-14T01:00:49.667Z,13.47
2018-02-14T01:03:17.141Z,13.40
2018-02-14T01:05:44.632Z,10.93
2018-02-14T01:08:12.118Z,12.63
2018-02-14T01:10:39.616Z,10.93
2018-02-14T01:13:07.122Z,8.60
2018-02-14T01:15:34.628Z,16.13
2018-02-14T01:18:02.144Z,13.60
2018-02-14T01:20:35.429Z,11.07
2018-02-14T01:23:02.939Z,11.33
2018-02-14T01:25:30.448Z,10.63
2018-02-14T01:27:57.964Z,14.20
2018-02-14T01:30:25.485Z,11.43
2018-02-14T01:32:53.043Z,14.10
2018-02-14T01:35:20.559Z,14.57
2018-02-14T01:37:48.056Z,11.97
2018-02-14T01:40:15.564Z,13.67
2018-02-14T01:42:43.060Z,14.07
2018-02-14T01:45:10.593Z,17.27
2018-02-14T01:47:38.111Z,11.57
2018-02-14T01:50:05.611Z,12.00
2018-02-14T01:52:33.106Z,15.07
2018-02-14T01:55:00.654Z,14.30
2018-02-14T01:57:28.145Z,11.23
2018-02-14T01:59:55.618Z,10.47
2018-02-14T02:02:23.136Z,13.63
2018-02-14T02:04:50.656Z,10.90
2018-02-14T02:07:18.117Z,12.37
2018-02-14T02:09:45.621Z,13.47
2018-02-14T02:12:13.150Z,14.23
2018-02-14T02:14:40.654Z,11.63
2018-02-14T02:17:08.150Z,10.83
2018-02-14T02:19:35.652Z,12.40
2018-02-14T02:22:03.172Z,11.70
2018-02-14T02:24:30.646Z,16.20
2018-02-14T02:26:58.140Z,10.80
2018-02-14T02:29:25.648Z,17.70
2018-02-14T02:31:53.126Z,14.70
2018-02-14T02:34:20.609Z,13.23
2018-02-14T02:36:48.088Z,13.80
2018-02-14T02:39:27.353Z,13.27
2018-02-14T02:41:54.834Z,15.00
2018-02-14T02:44:22.360Z,16.53
2018-02-14T02:46:49.860Z,12.93
2018-02-14T02:49:17.353Z,14.60
2018-02-14T02:51:44.823Z,17.83
2018-02-14T02:54:12.320Z,14.70
2018-02-14T02:56:39.797Z,17.20
2018-02-14T02:59:07.279Z,18.87
2018-02-14T03:01:34.772Z,14.13
2018-02-14T03:04:02.256Z,12.23
2018-02-14T03:06:29.754Z,18.20
2018-02-14T03:08:57.256Z,14.83
2018-02-14T03:11:24.752Z,12.80
2018-02-14T03:13:52.252Z,14.23
2018-02-14T03:16:19.770Z,13.73
2018-02-14T03:18:47.272Z,14.33
2018-02-14T03:21:14.749Z,16.60
2018-02-14T03:23:42.244Z,17.00
2018-02-14T03:26:09.748Z,13.57
2018-02-14T03:28:37.256Z,22.50
2018-02-14T03:31:06.705Z,15.37
2018-02-14T03:33:34.192Z,17.87
2018-02-14T03:36:01.671Z,15.80
2018-02-14T03:38:29.150Z,14.17
2018-02-14T03:40:56.645Z,16.83
2018-02-14T03:43:24.134Z,14.90
2018-02-14T03:45:51.650Z,18.90
2018-02-14T03:48:19.133Z,17.70
2018-02-14T03:50:46.617Z,19.17
2018-02-14T03:53:14.116Z,16.30
2018-02-14T03:55:41.613Z,15.73
2018-02-14T03:58:09.089Z,19.33
2018-02-14T04:00:36.584Z,15.57
2018-02-14T04:03:04.089Z,22.30
2018-02-14T04:05:31.570Z,16.10
2018-02-14T04:07:59.083Z,15.40
2018-02-14T04:10:26.570Z,16.80
2018-02-14T04:12:54.075Z,18.40
2018-02-14T04:15:21.592Z,23.03
2018-02-14T04:17:49.106Z,14.83
2018-02-14T04:20:16.598Z,15.40
2018-02-14T04:22:44.112Z,18.27
2018-02-14T04:25:11.599Z,14.97
2018-02-14T04:27:39.086Z,20.47
2018-02-14T04:30:06.574Z,20.47
2018-02-14T04:32:34.119Z,16.63
2018-02-14T04:35:01.597Z,23.30
2018-02-14T04:37:29.101Z,18.23
2018-02-14T04:39:58.546Z,18.07
2018-02-14T04:42:26.048Z,18.00
2018-02-14T04:44:53.555Z,12.60
2018-02-14T04:47:24.001Z,18.87
2018-02-14T04:49:51.535Z,16.30
2018-02-14T04:52:19.018Z,15.17
2018-02-14T04:54:46.501Z,17.17
2018-02-14T04:57:13.997Z,15.80
2018-02-14T04:59:41.546Z,22.03
2018-02-14T05:02:09.068Z,13.37
2018-02-14T05:04:39.189Z,19.27
2018-02-14T05:07:06.767Z,19.20
2018-02-14T05:09:34.289Z,17.03
2018-02-14T05:12:01.919Z,14.70
2018-02-14T05:14:29.483Z,18.97
2018-02-14T05:16:56.982Z,20.37
2018-02-14T05:19:24.517Z,17.87
2018-02-14T05:21:52.039Z,19.50
2018-02-14T05:24:19.545Z,15.57
2018-02-14T05:26:49.207Z,17.70
2018-02-14T05:29:16.733Z,15.83
2018-02-14T05:31:44.267Z,14.43
2018-02-14T05:34:11.794Z,17.20
2018-02-14T05:36:39.328Z,23.50
2018-02-14T05:39:06.864Z,21.73
2018-02-14T05:41:34.537Z,21.80
2018-02-14T05:44:02.272Z,20.93
2018-02-14T05:46:29.880Z,19.20
2018-02-14T05:48:57.473Z,21.70
2018-02-14T05:51:25.089Z,18.53
2018-02-14T05:53:52.621Z,20.23
2018-02-14T05:56:20.160Z,19.90
2018-02-14T05:58:47.666Z,22.23
2018-02-14T06:01:18.151Z,18.93
2018-02-14T06:03:45.817Z,16.77
2018-02-14T06:06:13.392Z,22.27
2018-02-14T06:08:40.975Z,17.00
2018-02-14T06:11:08.577Z,19.83
2018-02-14T06:13:36.093Z,26.83
2018-02-14T06:16:03.649Z,26.90
2018-02-14T06:18:31.186Z,19.67
2018-02-14T06:20:58.855Z,18.23
2018-02-14T06:23:26.588Z,17.90
2018-02-14T06:25:54.117Z,24.17
2018-02-14T06:28:21.752Z,20.93
2018-02-14T06:30:49.283Z,24.27
2018-02-14T06:33:16.820Z,19.13
2018-02-14T06:35:44.339Z,16.83
2018-02-14T06:38:11.875Z,21.83
2018-02-14T06:40:39.557Z,16.87
2018-02-14T06:43:07.224Z,22.40
2018-02-14T06:45:34.757Z,20.30
2018-02-14T06:48:02.241Z,22.97
2018-02-14T06:50:29.764Z,18.17
2018-02-14T06:52:57.260Z,16.73
2018-02-14T06:55:24.823Z,16.57
2018-02-14T06:57:52.344Z,21.40
2018-02-14T07:00:19.857Z,23.80
2018-02-14T07:02:47.364Z,23.87
2018-02-14T07:05:14.892Z,24.80
2018-02-14T07:07:42.382Z,19.03
2018-02-14T07:10:09.881Z,24.80
2018-02-14T07:12:37.390Z,23.10
2018-02-14T07:15:04.933Z,26.43
2018-02-14T07:17:32.422Z,21.70
2018-02-14T07:19:59.985Z,22.73
2018-02-14T07:22:27.514Z,20.87
2018-02-14T07:24:55.105Z,22.83
2018-02-14T07:27:22.590Z,25.20
2018-02-14T07:29:50.106Z,18.97
2018-02-14T07:32:17.609Z,22.93
2018-02-14T07:34:45.141Z,20.80
2018-02-14T07:37:12.691Z,22.43
2018-02-14T07:39:40.222Z,20.90
2018-02-14T07:42:07.751Z,24.83
2018-02-14T07:44:35.272Z,24.53
2018-02-14T07:47:02.799Z,22.00
2018-02-14T07:49:30.362Z,24.60
2018-02-14T07:51:57.887Z,26.57
2018-02-14T07:54:25.401Z,26.27
2018-02-14T07:56:52.939Z,21.53
2018-02-14T07:59:20.549Z,18.80
2018-02-14T08:01:48.072Z,23.23
2018-02-14T08:04:15.570Z,24.70
2018-02-14T08:06:43.094Z,25.27
2018-02-14T08:09:10.614Z,23.43
2018-02-14T08:11:38.109Z,27.30
2018-02-14T08:14:05.624Z,22.47
2018-02-14T08:16:33.127Z,32.80
2018-02-14T08:19:00.643Z,25.33
2018-02-14T08:21:28.137Z,31.13
2018-02-14T08:23:55.618Z,28.80
2018-02-14T08:26:23.107Z,23.07
2018-02-14T08:28:50.622Z,25.63
2018-02-14T08:31:18.144Z,23.67
2018-02-14T08:33:45.668Z,24.60
2018-02-14T08:36:13.164Z,26.33
2018-02-14T08:38:40.705Z,21.63
2018-02-14T08:41:08.282Z,24.90
2018-02-14T08:43:35.840Z,26.67
2018-02-14T08:46:03.337Z,25.73
2018-02-14T08:48:30.836Z,22.47
2018-02-14T08:50:58.390Z,28.93
2018-02-14T08:53:25.913Z,26.13
2018-02-14T08:55:53.400Z,24.57
2018-02-14T08:58:20.968Z,19.53
2018-02-14T09:00:48.472Z,21.03
2018-02-14T09:03:16.032Z,23.40
2018-02-14T09:05:43.560Z,17.17
2018-02-14T09:08:11.150Z,20.90
2018-02-14T09:10:38.736Z,19.37
2018-02-14T09:13:06.262Z,20.63
2018-02-14T09:15:33.757Z,20.53
2018-02-14T09:18:01.420Z,19.63
2018-02-14T09:20:28.925Z,18.87
2018-02-14T09:22:56.435Z,19.20
2018-02-14T09:25:23.930Z,17.83
2018-02-14T09:27:51.469Z,25.47
2018-02-14T09:30:19.021Z,19.23
2018-02-14T09:32:46.515Z,21.37
2018-02-14T09:35:14.033Z,17.97
2018-02-14T09:37:41.551Z,20.83
2018-02-14T09:40:09.363Z,16.83
2018-02-14T09:42:36.845Z,19.13
2018-02-14T09:45:04.376Z,14.47
2018-02-14T09:47:31.990Z,14.80
2018-02-14T09:49:59.512Z,14.87
2018-02-14T09:52:27.039Z,14.87
2018-02-14T09:54:54.601Z,18.43
2018-02-14T09:57:22.168Z,13.03
2018-02-14T09:59:49.718Z,14.40
2018-02-14T10:02:17.238Z,10.73
2018-02-14T10:04:44.837Z,15.50
2018-02-14T10:07:12.359Z,13.17
2018-02-14T10:09:39.901Z,15.03
2018-02-14T10:12:07.444Z,15.07
2018-02-14T10:14:34.933Z,15.60
2018-02-14T10:17:02.456Z,17.00
2018-02-14T10:19:29.950Z,13.63
2018-02-14T10:21:57.525Z,16.80
2018-02-14T10:24:25.080Z,19.27
2018-02-14T10:26:52.673Z,18.00
2018-02-14T10:29:20.199Z,23.67
2018-02-14T10:31:47.807Z,16.27
2018-02-14T10:34:15.359Z,20.40
2018-02-14T10:36:42.853Z,19.00
2018-02-14T10:39:10.481Z,17.70
2018-02-14T10:41:38.004Z,19.67
2018-02-14T10:44:05.568Z,19.43
2018-02-14T10:46:33.086Z,21.77
2018-02-14T10:49:00.626Z,26.60
2018-02-14T10:51:28.148Z,18.70
2018-02-14T10:53:55.661Z,16.53
2018-02-14T10:56:23.210Z,18.83
2018-02-14T10:58:50.699Z,19.17
2018-02-14T11:01:23.877Z,23.83
2018-02-14T11:03:51.431Z,22.37
2018-02-14T11:06:18.950Z,19.57
2018-02-14T11:08:46.500Z,19.57
2018-02-14T11:11:14.009Z,25.73
2018-02-14T11:13:41.536Z,20.10
2018-02-14T11:16:09.061Z,21.20
2018-02-14T11:18:36.618Z,17.47
2018-02-14T11:21:04.142Z,19.93
2018-02-14T11:23:31.704Z,20.27
2018-02-14T11:25:59.200Z,15.90
2018-02-14T11:28:26.794Z,18.60
2018-02-14T11:30:54.315Z,21.73
2018-02-14T11:33:22.185Z,16.50
2018-02-14T11:35:49.691Z,18.40
2018-02-14T11:38:17.196Z,20.23
2018-02-14T11:40:44.735Z,20.47
2018-02-14T11:43:12.248Z,22.90
2018-02-14T11:45:39.729Z,19.10
2018-02-14T11:48:07.312Z,19.83
2018-02-14T11:50:34.851Z,22.20
2018-02-14T11:53:02.377Z,23.40
2018-02-14T11:55:29.914Z,20.33
2018-02-14T11:57:57.450Z,20.27
2018-02-14T12:00:25.054Z,20.80
2018-02-14T12:02:52.570Z,20.40
2018-02-14T12:05:20.099Z,18.13
2018-02-14T12:07:47.628Z,19.00
2018-02-14T12:10:15.136Z,20.70
2018-02-14T12:12:42.636Z,18.20
2018-02-14T12:15:10.216Z,17.97
2018-02-14T12:17:37.704Z,17.67
2018-02-14T12:20:05.210Z,17.43
2018-02-14T12:22:32.781Z,18.60
2018-02-14T12:25:00.270Z,17.70
2018-02-14T12:27:27.787Z,16.23
2018-02-14T12:30:00.369Z,16.57
2018-02-14T12:32:27.880Z,18.13
2018-02-14T12:34:55.434Z,18.57
2018-02-14T12:37:22.962Z,18.33
2018-02-14T12:39:51.688Z,20.00
2018-02-14T12:42:19.862Z,19.50
2018-02-14T12:44:47.741Z,17.43
2018-02-14T12:47:17.017Z,20.67
2018-02-14T12:49:44.699Z,19.87
2018-02-14T12:52:13.245Z,17.80
2018-02-14T12:54:40.826Z,21.80
2018-02-14T12:57:08.373Z,17.87
2018-02-14T12:59:38.006Z,20.60
2018-02-14T13:02:05.511Z,18.20
2018-02-14T13:04:33.026Z,15.40
2018-02-14T13:07:00.590Z,18.30
2018-02-14T13:09:28.090Z,20.97
2018-02-14T13:11:56.937Z,16.90
2018-02-14T13:14:24.490Z,17.83
2018-02-14T13:16:54.307Z,23.73
2018-02-14T13:19:23.038Z,18.70
2018-02-14T13:21:51.857Z,21.17
2018-02-14T13:24:19.448Z,21.37
2018-02-14T13:26:47.094Z,22.40
2018-02-14T13:29:14.746Z,17.43
2018-02-14T13:31:42.296Z,20.47
2018-02-14T13:34:09.862Z,22.47
2018-02-14T13:36:37.656Z,19.73
2018-02-14T13:39:06.733Z,20.50
2018-02-14T13:41:35.215Z,22.17
2018-02-14T13:44:02.757Z,30.80
2018-02-14T13:46:30.261Z,22.73
2018-02-14T13:49:01.640Z,20.97
2018-02-14T13:51:29.243Z,19.33
2018-02-14T13:53:56.798Z,23.83
2018-02-14T13:56:26.948Z,19.43
2018-02-14T13:58:57.057Z,19.93
2018-02-14T14:01:24.593Z,22.30
2018-02-14T14:03:52.227Z,21.40
2018-02-14T14:06:19.819Z,20.77
2018-02-14T14:08:47.382Z,20.23
2018-02-14T14:11:15.153Z,23.80
2018-02-14T14:13:42.730Z,25.03
2018-02-14T14:16:10.266Z,25.23
2018-02-14T14:18:37.892Z,27.37
2018-02-14T14:21:05.490Z,27.40
2018-02-14T14:23:33.059Z,24.50
2018-02-14T14:26:00.601Z,26.27
2018-02-14T14:28:28.173Z,26.57
2018-02-14T14:30:55.719Z,26.30
2018-02-14T14:33:23.237Z,32.80
2018-02-14T14:35:50.868Z,27.57
2018-02-14T14:38:18.743Z,24.47
2018-02-14T14:40:46.692Z,24.63
2018-02-14T14:43:14.241Z,24.13
2018-02-14T14:45:41.760Z,26.00
2018-02-14T14:48:09.281Z,26.60
2018-02-14T14:50:39.836Z,25.50
2018-02-14T14:53:07.360Z,23.03
2018-02-14T14:55:34.914Z,26.03
2018-02-14T14:58:02.461Z,26.90
2018-02-14T15:00:30.040Z,30.33
2018-02-14T15:02:58.177Z,24.20
2018-02-14T15:05:28.334Z,26.30
2018-02-14T15:07:56.747Z,26.17
2018-02-14T15:10:26.867Z,24.63
2018-02-14T15:12:55.876Z,24.07
2018-02-14T15:15:24.516Z,21.93
2018-02-14T15:17:52.407Z,23.53
2018-02-14T15:20:21.109Z,25.97
2018-02-14T15:22:49.253Z,22.50
2018-02-14T15:25:17.650Z,24.80
2018-02-14T15:27:46.023Z,21.30
2018-02-14T15:30:13.622Z,27.67
2018-02-14T15:32:41.203Z,23.33
2018-02-14T15:35:09.120Z,20.83
2018-02-14T15:37:36.629Z,32.90
2018-02-14T15:40:04.125Z,25.43
2018-02-14T15:45:22.040Z,23.30
2018-02-14T15:47:49.596Z,22.90
2018-02-14T15:50:17.201Z,24.07
2018-02-14T15:52:44.740Z,26.70
2018-02-14T15:55:12.478Z,24.57
2018-02-14T15:57:40.009Z,20.73
2018-02-14T16:00:08.551Z,22.40
2018-02-14T16:02:36.081Z,23.03
2018-02-14T16:05:03.820Z,28.30
2018-02-14T16:07:31.433Z,24.50
2018-02-14T16:09:59.073Z,23.30
2018-02-14T16:12:27.056Z,20.17
2018-02-14T16:14:54.632Z,25.33
2018-02-14T16:17:22.172Z,21.13
2018-02-14T16:19:49.797Z,22.47
2018-02-14T16:22:17.389Z,23.20
2018-02-14T16:24:45.576Z,19.10
2018-02-14T16:27:13.236Z,22.93
2018-02-14T16:29:40.825Z,25.53
2018-02-14T16:32:08.525Z,23.67
2018-02-14T16:34:38.346Z,24.87
2018-02-14T16:37:07.093Z,24.70
2018-02-14T16:39:35.067Z,26.67
2018-02-14T16:42:04.177Z,25.20
2018-02-14T16:44:31.836Z,25.97
2018-02-14T16:46:59.496Z,28.37
2018-02-14T16:49:27.051Z,27.03
2018-02-14T16:51:54.722Z,26.93
2018-02-14T16:54:22.967Z,29.37
2018-02-14T16:56:51.026Z,32.03
2018-02-14T16:59:18.590Z,25.73
2018-02-14T17:01:47.352Z,25.73
2018-02-14T17:04:15.047Z,28.17
2018-02-14T17:06:43.203Z,28.00
2018-02-14T17:09:10.982Z,30.40
2018-02-14T17:11:38.550Z,28.87
2018-02-14T17:14:06.082Z,28.70
2018-02-14T17:16:33.610Z,28.83
2018-02-14T17:19:01.193Z,25.73
2018-02-14T17:21:28.753Z,26.47
2018-02-14T17:23:56.357Z,26.30
2018-02-14T17:26:23.916Z,35.87
2018-02-14T17:28:51.474Z,28.13
2018-02-14T17:31:19.027Z,30.10
2018-02-14T17:33:46.614Z,25.67
2018-02-14T17:36:14.338Z,28.83
2018-02-14T17:38:42.430Z,31.67
2018-02-14T17:41:10.074Z,30.20
2018-02-14T17:43:37.730Z,28.23
2018-02-14T17:46:05.288Z,31.87
2018-02-14T17:48:32.869Z,29.60
2018-02-14T17:51:00.457Z,33.30
2018-02-14T17:53:28.203Z,29.93
2018-02-14T17:55:55.952Z,32.60
2018-02-14T17:58:23.558Z,29.27
2018-02-14T18:00:51.152Z,27.70
2018-02-14T18:03:18.713Z,29.73
2018-02-14T18:05:46.316Z,32.53
2018-02-14T18:08:13.872Z,30.43
2018-02-14T18:10:41.503Z,33.00
2018-02-14T18:13:09.029Z,39.97
2018-02-14T18:15:36.626Z,34.53
2018-02-14T18:18:06.894Z,29.63
2018-02-14T18:20:34.422Z,31.93
2018-02-14T18:23:02.037Z,35.53
2018-02-14T18:25:29.547Z,31.00
2018-02-14T18:27:57.150Z,32.27
2018-02-14T18:30:24.767Z,32.60
2018-02-14T18:32:52.315Z,35.03
2018-02-14T18:35:19.888Z,38.67
2018-02-14T18:37:47.434Z,30.43
2018-02-14T18:40:14.948Z,31.87
2018-02-14T18:42:42.516Z,33.87
2018-02-14T18:45:10.022Z,33.03
2018-02-14T18:47:38.392Z,29.30
2018-02-14T18:50:05.968Z,33.03
2018-02-14T18:52:33.538Z,31.73
2018-02-14T18:55:01.096Z,31.97
2018-02-14T18:57:28.693Z,29.47
2018-02-14T18:59:56.225Z,31.90
2018-02-14T19:02:23.766Z,30.03
2018-02-14T19:04:51.524Z,38.80
2018-02-14T19:07:19.175Z,27.67
2018-02-14T19:09:46.779Z,30.80
2018-02-14T19:12:14.392Z,33.67
2018-02-14T19:14:41.961Z,31.27
2018-02-14T19:17:09.622Z,30.27
2018-02-14T19:19:37.297Z,29.90
2018-02-14T19:22:04.845Z,30.03
2018-02-14T19:24:32.403Z,30.17
2018-02-14T19:26:59.982Z,40.07
2018-02-14T19:29:27.564Z,27.50
2018-02-14T19:31:55.149Z,29.80
2018-02-14T19:34:22.666Z,30.23
2018-02-14T19:36:50.717Z,32.67
2018-02-14T19:39:18.398Z,37.20
2018-02-14T19:41:45.945Z,30.53
2018-02-14T19:44:13.461Z,27.90
2018-02-14T19:46:41.026Z,36.70
2018-02-14T19:49:08.564Z,32.33
2018-02-14T19:51:36.097Z,29.93
2018-02-14T19:54:03.749Z,31.93
2018-02-14T19:56:31.253Z,32.93
2018-02-14T19:58:58.845Z,34.60
2018-02-14T20:01:26.353Z,34.73
2018-02-14T20:03:53.972Z,30.93
2018-02-14T20:06:21.487Z,34.50
2018-02-14T20:08:49.032Z,32.23
2018-02-14T20:11:16.572Z,26.63
2018-02-14T20:13:44.143Z,30.10
2018-02-14T20:16:11.631Z,28.40
2018-02-14T20:18:39.267Z,26.97
2018-02-14T20:21:06.750Z,29.00
2018-02-14T20:23:34.416Z,29.93
2018-02-14T20:26:02.025Z,27.40
2018-02-14T20:28:30.706Z,29.03
2018-02-14T20:30:58.204Z,31.67
2018-02-14T20:33:25.730Z,28.17
2018-02-14T20:35:53.360Z,30.47
2018-02-14T20:38:20.860Z,38.17
2018-02-14T20:40:48.337Z,27.40
2018-02-14T20:43:15.942Z,35.92
2018-02-14T20:45:43.433Z,33.77
2018-02-14T20:48:10.923Z,27.60
2018-02-14T20:50:39.405Z,28.67
2018-02-14T20:53:06.900Z,34.13
2018-02-14T20:55:34.395Z,31.27
2018-02-14T20:58:01.892Z,32.47
2018-02-14T21:00:29.378Z,33.07
2018-02-14T21:02:56.929Z,27.63
2018-02-14T21:05:25.900Z,27.30
2018-02-14T21:07:53.373Z,31.37
2018-02-14T21:10:20.874Z,32.30
2018-02-14T21:12:48.410Z,27.93
2018-02-14T21:15:15.908Z,31.87
2018-02-14T21:17:43.440Z,27.47
2018-02-14T21:20:10.938Z,30.27
2018-02-14T21:22:38.526Z,38.50
2018-02-14T21:25:06.180Z,29.93
2018-02-14T21:27:33.685Z,27.10
2018-02-14T21:30:13.865Z,33.13
2018-02-14T21:32:42.172Z,32.67
2018-02-14T21:35:09.657Z,31.53
2018-02-14T21:37:37.136Z,29.67
2018-02-14T21:40:04.622Z,30.33
2018-02-14T21:42:32.108Z,29.43
2018-02-14T21:44:59.604Z,28.43
2018-02-14T21:47:27.091Z,28.93
2018-02-14T21:49:54.656Z,31.40
2018-02-14T21:52:22.159Z,28.20
2018-02-14T21:54:49.696Z,28.40
2018-02-14T21:57:17.169Z,30.47
2018-02-14T21:59:44.679Z,25.27
2018-02-14T22:02:12.183Z,26.27
2018-02-14T22:04:39.657Z,29.77
2018-02-14T22:07:07.168Z,24.73
2018-02-14T22:09:34.685Z,26.27
2018-02-14T22:12:02.157Z,23.23
2018-02-14T22:14:29.648Z,27.07
2018-02-14T22:16:57.158Z,28.07
2018-02-14T22:19:24.630Z,27.40
2018-02-14T22:21:52.105Z,25.37
2018-02-14T22:24:19.600Z,30.33
2018-02-14T22:26:47.097Z,27.70
2018-02-14T22:29:14.589Z,25.43
2018-02-14T22:31:42.063Z,27.90
2018-02-14T22:34:09.557Z,29.13
2018-02-14T22:36:37.072Z,26.17
2018-02-14T22:39:04.600Z,27.90
2018-02-14T22:41:32.076Z,35.77
2018-02-14T22:43:59.573Z,27.33
2018-02-14T22:46:27.077Z,25.57
2018-02-14T22:48:54.569Z,26.80
2018-02-14T22:51:22.091Z,28.47
2018-02-14T22:53:49.584Z,25.77
2018-02-14T22:56:17.076Z,28.90
2018-02-14T22:58:44.607Z,25.30
2018-02-14T23:01:12.090Z,28.87
2018-02-14T23:03:39.607Z,30.63
2018-02-14T23:06:07.092Z,27.00
2018-02-14T23:08:34.604Z,26.37
2018-02-14T23:11:02.100Z,32.03
2018-02-14T23:13:29.593Z,26.40
2018-02-14T23:15:57.105Z,29.43
2018-02-14T23:18:24.612Z,28.43
2018-02-14T23:20:52.111Z,30.40
2018-02-14T23:23:19.628Z,30.50
2018-02-14T23:25:47.090Z,39.17
2018-02-14T23:28:14.581Z,31.83
2018-02-14T23:30:42.058Z,31.77
2018-02-14T23:33:09.555Z,33.80
2018-02-14T23:35:37.071Z,28.90
2018-02-14T23:38:04.612Z,30.17
2018-02-14T23:40:32.090Z,28.43
2018-02-14T23:42:59.588Z,28.20
2018-02-14T23:45:27.109Z,29.87
2018-02-14T23:47:54.598Z,33.00
2018-02-14T23:50:22.078Z,29.93
2018-02-14T23:52:49.573Z,32.30
2018-02-14T23:55:17.084Z,29.80
2018-02-14T23:57:44.647Z,35.83
